Chinook — WCY2791 — position and weather

sailwx.info

Track history (hours):
 
Tides and Currents Weather Stations Pressure Air Temp Water Temp Dewpoint Dewpoint Depression Visibility Wind Speed Wind Dir Waves Ship Positions

Chinook

Owner: SAUSE BROS INC, COOS BAY, OR. More information available from US FCC via Universal Licensing System and Coast Guard Vessel Documentation Center.

Last reported at 2017-Nov-19 08:30 UTC. Time now 2017-Nov-19 08:59 UTC.
Position N 45°25' W 124°24'.

Type: Tow > 200 m length. MMSI: 367027570.

Date/timePositionNaut miles runAvg speedWind from/ knotsBaromVisibWave heightAir tempDewpointWater temp
2017-Nov-19 08:30N 45°25' W 124°24'2 4.3
2017-Nov-19 08:00N 45°27' W 124°23'2 4.4
2017-Nov-19 07:30N 45°29' W 124°23'2 4.5
2017-Nov-19 07:00N 45°31' W 124°23'2 4.5
2017-Nov-19 06:30N 45°33' W 124°22'2 4.5
2017-Nov-19 06:00N 45°36' W 124°21'2 4.4
2017-Nov-19 05:30N 45°38' W 124°21'2 4.5
2017-Nov-19 05:00N 45°40' W 124°20'2 4.5
2017-Nov-19 04:30N 45°42' W 124°20'2 4.5
2017-Nov-19 04:00N 45°45' W 124°20'2 4.2
2017-Nov-19 03:30N 45°47' W 124°20'2 4.5
2017-Nov-19 03:00N 45°49' W 124°20'2 4.8
2017-Nov-19 02:30N 45°51' W 124°20'2 4.8
2017-Nov-19 02:00N 45°54' W 124°20'2 4.9
2017-Nov-19 01:30N 45°56' W 124°20'2 5.0
2017-Nov-19 01:00N 45°59' W 124°20'3 5.1
2017-Nov-19 00:30N 46°01' W 124°20'3 5.1
2017-Nov-19 00:01N 46°04' W 124°20'3 5.0
2017-Nov-18 23:30N 46°06' W 124°19'3 5.2
2017-Nov-18 23:00N 46°08' W 124°16'2 5.0
2017-Nov-18 22:30N 46°10' W 124°14'2 4.9
2017-Nov-18 22:00N 46°12' W 124°11'3 5.6
2017-Nov-18 21:30N 46°13' W 124°08'3 5.6
2017-Nov-18 21:00N 46°15' W 124°05'2 4.7
2017-Nov-18 20:30N 46°15' W 124°02'2 4.4
2017-Nov-18 20:00N 46°14' W 123°59'2 4.5
2017-Nov-18 19:30N 46°13' W 123°57'2 3.6
2017-Nov-18 19:00N 46°11' W 123°55'2 3.9
2017-Nov-18 18:30N 46°12' W 123°52'2 3.4
2017-Nov-18 18:00N 46°12' W 123°49'2 3.4
2017-Nov-18 17:30N 46°12' W 123°47'1 1.2
2017-Nov-18 17:00N 46°13' W 123°46'3 5.7
2017-Nov-18 16:30N 46°14' W 123°43'4 7.1
2017-Nov-18 16:00N 46°16' W 123°38'4 7.2
2017-Nov-18 15:31N 46°16' W 123°33'3 7.0
2017-Nov-18 15:00N 46°16' W 123°28'4 7.1
2017-Nov-18 14:30N 46°13' W 123°26'3 6.8
2017-Nov-18 14:00N 46°10' W 123°24'3 6.6
2017-Nov-18 13:29N 46°09' W 123°20'5 7.3
2017-Nov-18 12:49N 46°10' W 123°13'2 7.4
2017-Nov-18 12:30N 46°11' W 123°10'4 6.8
2017-Nov-18 11:58N 46°10' W 123°05'3 6.8
2017-Nov-18 11:30N 46°08' W 123°01'3 6.4
2017-Nov-18 11:01N 46°06' W 122°58'0 0.8
2017-Nov-18 10:31N 46°06' W 122°57'0 0.0
2017-Nov-18 10:00N 46°06' W 122°57'0 0.0
2017-Nov-18 09:30N 46°06' W 122°57'0 0.0
2017-Nov-18 09:00N 46°06' W 122°57'0 0.0
2017-Nov-18 08:24N 46°06' W 122°57'0 0.0
2017-Nov-18 07:54N 46°06' W 122°57'0 0.0
2017-Nov-18 07:30N 46°06' W 122°57'0 0.0
2017-Nov-18 07:00N 46°06' W 122°57'0 0.0
2017-Nov-18 06:30N 46°06' W 122°57'0 0.0
2017-Nov-18 06:00N 46°06' W 122°57'0 0.0
2017-Nov-18 05:30N 46°06' W 122°57'0 0.0
2017-Nov-18 05:00N 46°06' W 122°57'0 0.0
2017-Nov-18 04:21N 46°06' W 122°57'0 0.0
2017-Nov-18 04:00N 46°06' W 122°57'0 0.0
2017-Nov-18 03:27N 46°06' W 122°57'0 0.0
2017-Nov-18 02:59N 46°06' W 122°57'0 0.0
2017-Nov-18 02:30N 46°06' W 122°57'0 0.0
2017-Nov-18 01:59N 46°06' W 122°57'0 0.0
2017-Nov-18 00:11N 46°06' W 122°57'0 0.1
2017-Nov-17 23:53N 46°06' W 122°57'0 0.1
2017-Nov-17 23:29N 46°06' W 122°57'0 0.0
2017-Nov-17 22:53N 46°06' W 122°57'0 0.0
2017-Nov-17 22:29N 46°06' W 122°57'0 0.0
2017-Nov-17 21:59N 46°06' W 122°57'0 0.0
2017-Nov-17 21:29N 46°06' W 122°57'0 0.0
2017-Nov-17 20:59N 46°06' W 122°57'0 0.0
2017-Nov-17 20:29N 46°06' W 122°57'0 0.0
2017-Nov-17 19:56N 46°06' W 122°57'0 0.0
2017-Nov-17 19:23N 46°06' W 122°57'2 5.6
2017-Nov-17 19:01N 46°05' W 122°55'713.0
2017-Nov-17 18:31N 45°59' W 122°51'712.9
2017-Nov-17 18:00N 45°53' W 122°48'612.7
2017-Nov-17 17:31N 45°47' W 122°46'612.7
2017-Nov-17 17:01N 45°40' W 122°46'510.0
2017-Nov-17 16:30N 45°35' W 122°46'3 6.7
2017-Nov-17 15:59N 45°33' W 122°42'0 0.0
2017-Nov-17 15:26N 45°33' W 122°42'0 0.0
2017-Nov-17 14:56N 45°33' W 122°42'0 0.0
2017-Nov-17 14:26N 45°33' W 122°42'0 0.0
2017-Nov-17 13:59N 45°33' W 122°42'0 0.0
2017-Nov-17 13:29N 45°33' W 122°42'0 0.0
2017-Nov-17 12:56N 45°33' W 122°42'0 0.0
2017-Nov-17 12:26N 45°33' W 122°42'0 0.0
2017-Nov-17 11:59N 45°33' W 122°42'0 0.0
2017-Nov-17 11:26N 45°33' W 122°42'0 0.0
2017-Nov-17 10:59N 45°33' W 122°42'0 0.0
2017-Nov-17 10:20N 45°33' W 122°42'0 0.0
2017-Nov-17 09:59N 45°33' W 122°42'0 0.0
2017-Nov-17 09:20N 45°33' W 122°42'0 0.0
2017-Nov-17 08:56N 45°33' W 122°42'0 0.0
2017-Nov-17 08:29N 45°33' W 122°42'0 0.0
2017-Nov-17 07:56N 45°33' W 122°42'0 0.0
2017-Nov-17 07:26N 45°33' W 122°42'0 0.0
2017-Nov-17 06:59N 45°33' W 122°42'0 0.0
2017-Nov-17 06:26N 45°33' W 122°42'0 0.0
2017-Nov-17 05:50N 45°33' W 122°42'0 0.0
2017-Nov-17 05:26N 45°33' W 122°42'0 0.0
2017-Nov-17 04:56N 45°33' W 122°42'0 0.0
2017-Nov-17 04:26N 45°33' W 122°42'0 0.0
2017-Nov-17 03:56N 45°33' W 122°42'0 0.0
2017-Nov-17 03:26N 45°33' W 122°42'0 0.0
2017-Nov-17 02:56N 45°33' W 122°42'0 0.0
2017-Nov-17 02:29N 45°33' W 122°42'0 0.0
2017-Nov-17 01:50N 45°33' W 122°42'0 0.0
2017-Nov-17 01:29N 45°33' W 122°42'0 0.0
2017-Nov-17 00:56N 45°33' W 122°42'0 0.0
2017-Nov-17 00:29N 45°33' W 122°42'0 0.0
2017-Nov-16 23:59N 45°33' W 122°42'0 0.0
2017-Nov-16 23:29N 45°33' W 122°42'0 0.0
2017-Nov-16 22:55N 45°33' W 122°42'0 0.0
2017-Nov-16 22:19N 45°33' W 122°42'0 0.0
2017-Nov-16 21:55N 45°33' W 122°42'1 1.6
2017-Nov-16 21:30N 45°33' W 122°43'1 1.7
2017-Nov-16 21:00N 45°34' W 122°44'0 0.0
2017-Nov-16 20:31N 45°34' W 122°44'0 0.0
2017-Nov-16 20:00N 45°34' W 122°44'0 0.0
2017-Nov-16 19:30N 45°34' W 122°44'0 0.0
2017-Nov-16 19:00N 45°34' W 122°44'1 1.5
2017-Nov-16 18:30N 45°34' W 122°43'1 1.3
2017-Nov-16 17:56N 45°33' W 122°42'0 0.0
2017-Nov-16 17:17N 45°33' W 122°42'0 0.0
2017-Nov-16 16:59N 45°33' W 122°42'0 0.0
2017-Nov-16 16:26N 45°33' W 122°42'0 0.0
2017-Nov-16 15:59N 45°33' W 122°42'0 0.0
2017-Nov-16 15:29N 45°33' W 122°42'0 0.0
2017-Nov-16 14:59N 45°33' W 122°42'0 0.0
2017-Nov-16 14:23N 45°33' W 122°42'0 0.0
2017-Nov-16 13:56N 45°33' W 122°42'0 0.0
2017-Nov-16 13:20N 45°33' W 122°42'0 0.0
2017-Nov-16 12:56N 45°33' W 122°42'0 0.0
2017-Nov-16 12:29N 45°33' W 122°42'0 0.0
2017-Nov-16 11:56N 45°33' W 122°42'0 0.0
2017-Nov-16 11:26N 45°33' W 122°42'0 0.0
2017-Nov-16 10:55N 45°33' W 122°42'0 0.0
2017-Nov-16 10:23N 45°33' W 122°42'0 0.0
2017-Nov-16 09:49N 45°33' W 122°42'0 0.0
2017-Nov-16 09:13N 45°33' W 122°42'0 0.0
2017-Nov-16 08:52N 45°33' W 122°42'0 0.0
2017-Nov-16 08:28N 45°33' W 122°42'0 0.0
2017-Nov-16 07:56N 45°33' W 122°42'0 0.0
2017-Nov-16 07:16N 45°33' W 122°42'0 0.0
2017-Nov-16 06:55N 45°33' W 122°42'0 0.0
2017-Nov-16 06:25N 45°33' W 122°42'0 0.0
2017-Nov-16 05:58N 45°33' W 122°42'0 0.0
2017-Nov-16 05:25N 45°33' W 122°42'0 0.0
2017-Nov-16 04:55N 45°33' W 122°42'0 0.0
2017-Nov-16 04:28N 45°33' W 122°42'0 0.0
2017-Nov-16 03:52N 45°33' W 122°42'0 0.0
2017-Nov-16 03:22N 45°33' W 122°42'0 0.0
2017-Nov-16 02:58N 45°33' W 122°42'0 0.0
2017-Nov-16 02:28N 45°33' W 122°42'0 0.0
2017-Nov-16 01:55N 45°33' W 122°42'0 0.0
2017-Nov-16 01:28N 45°33' W 122°42'0 0.0
2017-Nov-16 00:58N 45°33' W 122°42'0 0.0
2017-Nov-16 00:28N 45°33' W 122°42'0 0.0
2017-Nov-15 23:58N 45°33' W 122°42'0 0.0
2017-Nov-15 23:28N 45°33' W 122°42'0 0.0
2017-Nov-15 22:56N 45°33' W 122°42'0 0.0
2017-Nov-15 22:29N 45°33' W 122°42'0 0.0
2017-Nov-15 21:58N 45°33' W 122°42'0 0.0
2017-Nov-15 21:25N 45°33' W 122°42'0 0.0
2017-Nov-15 20:58N 45°33' W 122°42'0 0.0
2017-Nov-15 20:26N 45°33' W 122°42'0 0.0
2017-Nov-15 19:58N 45°33' W 122°42'0 0.0
2017-Nov-15 19:25N 45°33' W 122°42'0 0.0
2017-Nov-15 18:55N 45°33' W 122°42'0 0.0
2017-Nov-15 18:28N 45°33' W 122°42'0 0.0
2017-Nov-15 17:55N 45°33' W 122°42'0 0.0
2017-Nov-15 17:19N 45°33' W 122°42'0 0.0
2017-Nov-15 16:55N 45°33' W 122°42'0 0.0
2017-Nov-15 16:25N 45°33' W 122°42'0 0.0
2017-Nov-15 15:55N 45°33' W 122°42'0 0.0
2017-Nov-15 15:28N 45°33' W 122°42'0 0.0
2017-Nov-15 14:55N 45°33' W 122°42'0 0.0
2017-Nov-15 14:25N 45°33' W 122°42'0 0.0
2017-Nov-15 13:58N 45°33' W 122°42'0 0.0
2017-Nov-15 13:25N 45°33' W 122°42'0 0.0
2017-Nov-15 12:37N 45°33' W 122°42'0 0.0
2017-Nov-15 12:28N 45°33' W 122°42'0 0.0
2017-Nov-15 11:58N 45°33' W 122°42'0 0.0
2017-Nov-15 11:28N 45°33' W 122°42'0 0.0
2017-Nov-15 10:58N 45°33' W 122°42'0 0.0
2017-Nov-15 10:28N 45°33' W 122°42'0 0.0
2017-Nov-15 09:55N 45°33' W 122°42'0 0.0
2017-Nov-15 09:28N 45°33' W 122°42'0 0.0
2017-Nov-15 08:58N 45°33' W 122°42'0 0.0
2017-Nov-15 08:28N 45°33' W 122°42'0 0.0
2017-Nov-15 07:58N 45°33' W 122°42'0 0.0
2017-Nov-15 07:25N 45°33' W 122°42'0 0.0
2017-Nov-15 06:55N 45°33' W 122°42'0 0.0
2017-Nov-15 06:25N 45°33' W 122°42'0 0.0
2017-Nov-15 05:58N 45°33' W 122°42'0 0.0
2017-Nov-15 05:25N 45°33' W 122°42'0 0.0
2017-Nov-15 04:55N 45°33' W 122°42'0 0.0
2017-Nov-15 04:31N 45°33' W 122°42'0 0.0
2017-Nov-15 04:00N 45°33' W 122°42'0 0.0
2017-Nov-15 03:18N 45°33' W 122°42'0 0.0
2017-Nov-15 02:54N 45°33' W 122°42'0 0.0
2017-Nov-15 02:09N 45°33' W 122°42'0 0.0
2017-Nov-15 01:57N 45°33' W 122°42'0 0.0
2017-Nov-15 01:30N 45°33' W 122°42'  
2017-Nov-12 19:48N 45°33' W 122°42'0 0.0
2017-Nov-12 19:30N 45°33' W 122°42'0 0.0
2017-Nov-12 19:00N 45°33' W 122°42'0 0.0
2017-Nov-12 18:29N 45°33' W 122°42'0 0.0
2017-Nov-12 17:59N 45°33' W 122°42'0 0.0
2017-Nov-12 17:30N 45°33' W 122°42'0 0.0
2017-Nov-12 16:59N 45°33' W 122°42'0 0.0
2017-Nov-12 16:29N 45°33' W 122°42'0 0.0
2017-Nov-12 15:59N 45°33' W 122°42'0 0.0
2017-Nov-12 15:26N 45°33' W 122°42'0 0.0
2017-Nov-12 14:59N 45°33' W 122°42'0 0.0
2017-Nov-12 14:29N 45°33' W 122°42'0 0.0
2017-Nov-12 13:59N 45°33' W 122°42'0 0.0
2017-Nov-12 13:29N 45°33' W 122°42'0 0.0
2017-Nov-12 12:59N 45°33' W 122°42'0 0.0
2017-Nov-12 12:29N 45°33' W 122°42'0 0.0
2017-Nov-12 11:56N 45°33' W 122°42'0 0.0
2017-Nov-12 11:29N 45°33' W 122°42'0 0.0
2017-Nov-12 10:59N 45°33' W 122°42'0 0.0
2017-Nov-12 10:29N 45°33' W 122°42'0 0.0
2017-Nov-12 09:59N 45°33' W 122°42'0 0.0
2017-Nov-12 09:29N 45°33' W 122°42'0 0.0
2017-Nov-12 08:59N 45°33' W 122°42'0 0.0
2017-Nov-12 08:29N 45°33' W 122°42'0 0.0
2017-Nov-12 07:59N 45°33' W 122°42'0 0.0
2017-Nov-12 07:29N 45°33' W 122°42'0 0.0
2017-Nov-12 06:59N 45°33' W 122°42'0 0.0
2017-Nov-12 06:29N 45°33' W 122°42'0 0.0
2017-Nov-12 05:59N 45°33' W 122°42'0 0.0
2017-Nov-12 05:29N 45°33' W 122°42'0 0.0
2017-Nov-12 04:59N 45°33' W 122°42'0 0.0
2017-Nov-12 04:29N 45°33' W 122°42'0 0.0
2017-Nov-12 03:59N 45°33' W 122°42'0 0.0
2017-Nov-12 03:29N 45°33' W 122°42'0 0.0
2017-Nov-12 02:59N 45°33' W 122°42'0 0.0
2017-Nov-12 02:23N 45°33' W 122°42'0 0.0
2017-Nov-12 01:59N 45°33' W 122°42'0 0.0
2017-Nov-12 01:29N 45°33' W 122°42'0 0.0
2017-Nov-12 00:59N 45°33' W 122°42'0 0.0
2017-Nov-12 00:29N 45°33' W 122°42'0 0.0
2017-Nov-11 23:59N 45°33' W 122°42'0 0.0
2017-Nov-11 23:29N 45°33' W 122°42'0 0.0
2017-Nov-11 22:59N 45°33' W 122°42'0 0.0
2017-Nov-11 22:29N 45°33' W 122°42'0 0.0
2017-Nov-11 21:59N 45°33' W 122°42'0 0.0
2017-Nov-11 21:29N 45°33' W 122°42'0 0.0
2017-Nov-11 20:59N 45°33' W 122°42'0 0.0
2017-Nov-11 20:29N 45°33' W 122°42'0 0.0
2017-Nov-11 19:59N 45°33' W 122°42'0 0.0
2017-Nov-11 19:29N 45°33' W 122°42'0 0.0
2017-Nov-11 18:59N 45°33' W 122°42'0 0.0
2017-Nov-11 18:29N 45°33' W 122°42'0 0.0
2017-Nov-11 17:59N 45°33' W 122°42'0 0.0
2017-Nov-11 17:29N 45°33' W 122°42'0 0.0
2017-Nov-11 16:53N 45°33' W 122°42'0 0.0
2017-Nov-11 16:29N 45°33' W 122°42'0 0.0
2017-Nov-11 15:56N 45°33' W 122°42'0 0.0
2017-Nov-11 15:29N 45°33' W 122°42'0 0.0
2017-Nov-11 14:59N 45°33' W 122°42'0 0.0
2017-Nov-11 14:29N 45°33' W 122°42'0 0.0
2017-Nov-11 13:59N 45°33' W 122°42'0 0.0
2017-Nov-11 13:29N 45°33' W 122°42'0 0.0
2017-Nov-11 12:59N 45°33' W 122°42'0 0.0
2017-Nov-11 12:29N 45°33' W 122°42'0 0.0
2017-Nov-11 11:59N 45°33' W 122°42'0 0.0
2017-Nov-11 11:29N 45°33' W 122°42'0 0.0
2017-Nov-11 10:59N 45°33' W 122°42'0 0.0
2017-Nov-11 10:29N 45°33' W 122°42'0 0.0
2017-Nov-11 09:58N 45°33' W 122°42'0 0.0
2017-Nov-11 09:28N 45°33' W 122°42'0 0.0
2017-Nov-11 08:58N 45°33' W 122°42'0 0.0
2017-Nov-11 08:28N 45°33' W 122°42'0 0.0
2017-Nov-11 07:58N 45°33' W 122°42'0 0.0
2017-Nov-11 07:28N 45°33' W 122°42'0 0.0
2017-Nov-11 06:58N 45°33' W 122°42'0 0.0
2017-Nov-11 06:28N 45°33' W 122°42'0 0.0
2017-Nov-11 05:58N 45°33' W 122°42'0 0.0
2017-Nov-11 05:28N 45°33' W 122°42'0 0.0
2017-Nov-11 04:58N 45°33' W 122°42'0 0.0
2017-Nov-11 04:28N 45°33' W 122°42'0 0.0
2017-Nov-11 03:58N 45°33' W 122°42'0 0.0
2017-Nov-11 03:28N 45°33' W 122°42'0 0.0
2017-Nov-11 02:58N 45°33' W 122°42'0 0.0
2017-Nov-11 02:22N 45°33' W 122°42'0 0.0
2017-Nov-11 01:58N 45°33' W 122°42'0 0.0
2017-Nov-11 01:28N 45°33' W 122°42'0 0.0
2017-Nov-11 00:58N 45°33' W 122°42'0 0.0
2017-Nov-11 00:28N 45°33' W 122°42'0 0.0
2017-Nov-10 23:58N 45°33' W 122°42'0 0.0
2017-Nov-10 23:28N 45°33' W 122°42'0 0.0
2017-Nov-10 22:58N 45°33' W 122°42'0 0.0
2017-Nov-10 22:28N 45°33' W 122°42'0 0.0
2017-Nov-10 21:58N 45°33' W 122°42'0 0.0
2017-Nov-10 21:28N 45°33' W 122°42'0 0.0
2017-Nov-10 20:58N 45°33' W 122°42'0 0.0
2017-Nov-10 20:28N 45°33' W 122°42'0 0.0
2017-Nov-10 19:58N 45°33' W 122°42'0 0.0
2017-Nov-10 19:28N 45°33' W 122°42'0 0.0
2017-Nov-10 18:58N 45°33' W 122°42'0 0.0
2017-Nov-10 18:28N 45°33' W 122°42'0 0.0
2017-Nov-10 17:58N 45°33' W 122°42'0 0.0
2017-Nov-10 17:28N 45°33' W 122°42'0 0.0
2017-Nov-10 16:58N 45°33' W 122°42'0 0.0
2017-Nov-10 16:22N 45°33' W 122°42'0 0.0
2017-Nov-10 15:58N 45°33' W 122°42'0 0.0
2017-Nov-10 15:28N 45°33' W 122°42'0 0.0
2017-Nov-10 14:58N 45°33' W 122°42'0 0.0
2017-Nov-10 14:16N 45°33' W 122°42'0 0.0
2017-Nov-10 13:58N 45°33' W 122°42'0 0.0
2017-Nov-10 13:10N 45°33' W 122°42'0 0.0
2017-Nov-10 12:55N 45°33' W 122°42'0 0.0
2017-Nov-10 12:25N 45°33' W 122°42'0 0.0
2017-Nov-10 11:58N 45°33' W 122°42'0 0.0
2017-Nov-10 11:25N 45°33' W 122°42'0 0.0
2017-Nov-10 10:58N 45°33' W 122°42'0 0.0
2017-Nov-10 10:28N 45°33' W 122°42'0 0.0
2017-Nov-10 09:58N 45°33' W 122°42'0 0.0
2017-Nov-10 09:28N 45°33' W 122°42'0 0.0
2017-Nov-10 08:58N 45°33' W 122°42'0 0.0
2017-Nov-10 08:28N 45°33' W 122°42'0 0.0
2017-Nov-10 07:58N 45°33' W 122°42'0 0.0
2017-Nov-10 07:25N 45°33' W 122°42'0 0.0
2017-Nov-10 06:58N 45°33' W 122°42'0 0.0
2017-Nov-10 06:25N 45°33' W 122°42'0 0.0
2017-Nov-10 06:01N 45°33' W 122°42'0 0.0
2017-Nov-10 05:31N 45°33' W 122°42'0 0.0
2017-Nov-10 05:00N 45°33' W 122°42'0 0.0
2017-Nov-10 04:30N 45°33' W 122°42'0 0.0
2017-Nov-10 04:00N 45°33' W 122°42'0 0.0
2017-Nov-10 03:30N 45°33' W 122°42'3 6.1
2017-Nov-10 03:00N 45°35' W 122°46'5 8.8
2017-Nov-10 02:26N 45°40' W 122°46'511.1
2017-Nov-10 02:00N 45°45' W 122°46'510.9
2017-Nov-10 01:30N 45°50' W 122°47'510.0
2017-Nov-10 01:00N 45°55' W 122°49'510.4
2017-Nov-10 00:30N 45°60' W 122°51'510.6
2017-Nov-10 00:00N 46°05' W 122°54'3 5.4
2017-Nov-09 23:30N 46°06' W 122°57'0 0.2
2017-Nov-09 23:00N 46°06' W 122°57'0 0.3
2017-Nov-09 22:30N 46°06' W 122°57'0 0.0
2017-Nov-09 22:00N 46°06' W 122°57'0 0.3
2017-Nov-09 21:30N 46°06' W 122°57'0 0.4
2017-Nov-09 21:00N 46°06' W 122°57'2 4.1
2017-Nov-09 20:30N 46°07' W 122°60'4 7.7
2017-Nov-09 20:00N 46°10' W 123°04'4 7.9
2017-Nov-09 19:30N 46°11' W 123°09'4 8.1
2017-Nov-09 19:00N 46°10' W 123°15'4 8.1
2017-Nov-09 18:30N 46°09' W 123°20'4 7.9
2017-Nov-09 18:00N 46°11' W 123°25'4 8.2
2017-Nov-09 17:30N 46°15' W 123°26'4 7.5
2017-Nov-09 17:00N 46°16' W 123°31'4 8.4
2017-Nov-09 16:30N 46°15' W 123°37'4 8.3
2017-Nov-09 16:00N 46°14' W 123°43'4 8.4
2017-Nov-09 15:31N 46°12' W 123°48'2 3.1
2017-Nov-09 15:01N 46°12' W 123°50'3 6.9
2017-Nov-09 14:30N 46°12' W 123°55'3 6.9
2017-Nov-09 14:00N 46°14' W 123°59'3 6.4
2017-Nov-09 13:30N 46°15' W 124°03'3 6.4
2017-Nov-09 13:00N 46°14' W 124°07'4 7.0
2017-Nov-09 12:23N 46°10' W 124°10'3 7.4
2017-Nov-09 12:00N 46°07' W 124°10'4 6.6
2017-Nov-09 11:21N 46°03' W 124°11'2 7.1
2017-Nov-09 11:00N 46°01' W 124°10'3 6.8
2017-Nov-09 10:30N 45°57' W 124°10'3 6.9
2017-Nov-09 10:00N 45°54' W 124°10'4 7.3
2017-Nov-09 09:30N 45°50' W 124°09'4 7.2
2017-Nov-09 09:00N 45°46' W 124°09'4 7.1
2017-Nov-09 08:30N 45°43' W 124°09'  
Track history (hours):
 
Tides and Currents Weather Stations Pressure Air Temp Water Temp Dewpoint Dewpoint Depression Visibility Wind Speed Wind Dir Waves Ship Positions

Chinook

Owner: SAUSE BROS INC, COOS BAY, OR. More information available from US FCC via Universal Licensing System and Coast Guard Vessel Documentation Center.

Last reported at 2017-Nov-19 08:30 UTC. Time now 2017-Nov-19 08:59 UTC.
Position N 45°25' W 124°24'.

Type: Tow > 200 m length. MMSI: 367027570.

Date/timePositionNaut miles runAvg speedWind from/ knotsBaromVisibWave heightAir tempDewpointWater temp
2017-Nov-19 08:30N 45°25' W 124°24'2 4.3
2017-Nov-19 08:00N 45°27' W 124°23'2 4.4
2017-Nov-19 07:30N 45°29' W 124°23'2 4.5
2017-Nov-19 07:00N 45°31' W 124°23'2 4.5
2017-Nov-19 06:30N 45°33' W 124°22'2 4.5
2017-Nov-19 06:00N 45°36' W 124°21'2 4.4
2017-Nov-19 05:30N 45°38' W 124°21'2 4.5
2017-Nov-19 05:00N 45°40' W 124°20'2 4.5
2017-Nov-19 04:30N 45°42' W 124°20'2 4.5
2017-Nov-19 04:00N 45°45' W 124°20'2 4.2
2017-Nov-19 03:30N 45°47' W 124°20'2 4.5
2017-Nov-19 03:00N 45°49' W 124°20'2 4.8
2017-Nov-19 02:30N 45°51' W 124°20'2 4.8
2017-Nov-19 02:00N 45°54' W 124°20'2 4.9
2017-Nov-19 01:30N 45°56' W 124°20'2 5.0
2017-Nov-19 01:00N 45°59' W 124°20'3 5.1
2017-Nov-19 00:30N 46°01' W 124°20'3 5.1
2017-Nov-19 00:01N 46°04' W 124°20'3 5.0
2017-Nov-18 23:30N 46°06' W 124°19'3 5.2
2017-Nov-18 23:00N 46°08' W 124°16'2 5.0
2017-Nov-18 22:30N 46°10' W 124°14'2 4.9
2017-Nov-18 22:00N 46°12' W 124°11'3 5.6
2017-Nov-18 21:30N 46°13' W 124°08'3 5.6
2017-Nov-18 21:00N 46°15' W 124°05'2 4.7
2017-Nov-18 20:30N 46°15' W 124°02'2 4.4
2017-Nov-18 20:00N 46°14' W 123°59'2 4.5
2017-Nov-18 19:30N 46°13' W 123°57'2 3.6
2017-Nov-18 19:00N 46°11' W 123°55'2 3.9
2017-Nov-18 18:30N 46°12' W 123°52'2 3.4
2017-Nov-18 18:00N 46°12' W 123°49'2 3.4
2017-Nov-18 17:30N 46°12' W 123°47'1 1.2
2017-Nov-18 17:00N 46°13' W 123°46'3 5.7
2017-Nov-18 16:30N 46°14' W 123°43'4 7.1
2017-Nov-18 16:00N 46°16' W 123°38'4 7.2
2017-Nov-18 15:31N 46°16' W 123°33'3 7.0
2017-Nov-18 15:00N 46°16' W 123°28'4 7.1
2017-Nov-18 14:30N 46°13' W 123°26'3 6.8
2017-Nov-18 14:00N 46°10' W 123°24'3 6.6
2017-Nov-18 13:29N 46°09' W 123°20'5 7.3
2017-Nov-18 12:49N 46°10' W 123°13'2 7.4
2017-Nov-18 12:30N 46°11' W 123°10'4 6.8
2017-Nov-18 11:58N 46°10' W 123°05'3 6.8
2017-Nov-18 11:30N 46°08' W 123°01'3 6.4
2017-Nov-18 11:01N 46°06' W 122°58'0 0.8
2017-Nov-18 10:31N 46°06' W 122°57'0 0.0
2017-Nov-18 10:00N 46°06' W 122°57'0 0.0
2017-Nov-18 09:30N 46°06' W 122°57'0 0.0
2017-Nov-18 09:00N 46°06' W 122°57'0 0.0
2017-Nov-18 08:24N 46°06' W 122°57'0 0.0
2017-Nov-18 07:54N 46°06' W 122°57'0 0.0
2017-Nov-18 07:30N 46°06' W 122°57'0 0.0
2017-Nov-18 07:00N 46°06' W 122°57'0 0.0
2017-Nov-18 06:30N 46°06' W 122°57'0 0.0
2017-Nov-18 06:00N 46°06' W 122°57'0 0.0
2017-Nov-18 05:30N 46°06' W 122°57'0 0.0
2017-Nov-18 05:00N 46°06' W 122°57'0 0.0
2017-Nov-18 04:21N 46°06' W 122°57'0 0.0
2017-Nov-18 04:00N 46°06' W 122°57'0 0.0
2017-Nov-18 03:27N 46°06' W 122°57'0 0.0
2017-Nov-18 02:59N 46°06' W 122°57'0 0.0
2017-Nov-18 02:30N 46°06' W 122°57'0 0.0
2017-Nov-18 01:59N 46°06' W 122°57'0 0.0
2017-Nov-18 00:11N 46°06' W 122°57'0 0.1
2017-Nov-17 23:53N 46°06' W 122°57'0 0.1
2017-Nov-17 23:29N 46°06' W 122°57'0 0.0
2017-Nov-17 22:53N 46°06' W 122°57'0 0.0
2017-Nov-17 22:29N 46°06' W 122°57'0 0.0
2017-Nov-17 21:59N 46°06' W 122°57'0 0.0
2017-Nov-17 21:29N 46°06' W 122°57'0 0.0
2017-Nov-17 20:59N 46°06' W 122°57'0 0.0
2017-Nov-17 20:29N 46°06' W 122°57'0 0.0
2017-Nov-17 19:56N 46°06' W 122°57'0 0.0
2017-Nov-17 19:23N 46°06' W 122°57'2 5.6
2017-Nov-17 19:01N 46°05' W 122°55'713.0
2017-Nov-17 18:31N 45°59' W 122°51'712.9
2017-Nov-17 18:00N 45°53' W 122°48'612.7
2017-Nov-17 17:31N 45°47' W 122°46'612.7
2017-Nov-17 17:01N 45°40' W 122°46'510.0
2017-Nov-17 16:30N 45°35' W 122°46'3 6.7
2017-Nov-17 15:59N 45°33' W 122°42'0 0.0
2017-Nov-17 15:26N 45°33' W 122°42'0 0.0
2017-Nov-17 14:56N 45°33' W 122°42'0 0.0
2017-Nov-17 14:26N 45°33' W 122°42'0 0.0
2017-Nov-17 13:59N 45°33' W 122°42'0 0.0
2017-Nov-17 13:29N 45°33' W 122°42'0 0.0
2017-Nov-17 12:56N 45°33' W 122°42'0 0.0
2017-Nov-17 12:26N 45°33' W 122°42'0 0.0
2017-Nov-17 11:59N 45°33' W 122°42'0 0.0
2017-Nov-17 11:26N 45°33' W 122°42'0 0.0
2017-Nov-17 10:59N 45°33' W 122°42'0 0.0
2017-Nov-17 10:20N 45°33' W 122°42'0 0.0
2017-Nov-17 09:59N 45°33' W 122°42'0 0.0
2017-Nov-17 09:20N 45°33' W 122°42'0 0.0
2017-Nov-17 08:56N 45°33' W 122°42'0 0.0
2017-Nov-17 08:29N 45°33' W 122°42'0 0.0
2017-Nov-17 07:56N 45°33' W 122°42'0 0.0
2017-Nov-17 07:26N 45°33' W 122°42'0 0.0
2017-Nov-17 06:59N 45°33' W 122°42'0 0.0
2017-Nov-17 06:26N 45°33' W 122°42'0 0.0
2017-Nov-17 05:50N 45°33' W 122°42'0 0.0
2017-Nov-17 05:26N 45°33' W 122°42'0 0.0
2017-Nov-17 04:56N 45°33' W 122°42'0 0.0
2017-Nov-17 04:26N 45°33' W 122°42'0 0.0
2017-Nov-17 03:56N 45°33' W 122°42'0 0.0
2017-Nov-17 03:26N 45°33' W 122°42'0 0.0
2017-Nov-17 02:56N 45°33' W 122°42'0 0.0
2017-Nov-17 02:29N 45°33' W 122°42'0 0.0
2017-Nov-17 01:50N 45°33' W 122°42'0 0.0
2017-Nov-17 01:29N 45°33' W 122°42'0 0.0
2017-Nov-17 00:56N 45°33' W 122°42'0 0.0
2017-Nov-17 00:29N 45°33' W 122°42'0 0.0
2017-Nov-16 23:59N 45°33' W 122°42'0 0.0
2017-Nov-16 23:29N 45°33' W 122°42'0 0.0
2017-Nov-16 22:55N 45°33' W 122°42'0 0.0
2017-Nov-16 22:19N 45°33' W 122°42'0 0.0
2017-Nov-16 21:55N 45°33' W 122°42'1 1.6
2017-Nov-16 21:30N 45°33' W 122°43'1 1.7
2017-Nov-16 21:00N 45°34' W 122°44'0 0.0
2017-Nov-16 20:31N 45°34' W 122°44'0 0.0
2017-Nov-16 20:00N 45°34' W 122°44'0 0.0
2017-Nov-16 19:30N 45°34' W 122°44'0 0.0
2017-Nov-16 19:00N 45°34' W 122°44'1 1.5
2017-Nov-16 18:30N 45°34' W 122°43'1 1.3
2017-Nov-16 17:56N 45°33' W 122°42'0 0.0
2017-Nov-16 17:17N 45°33' W 122°42'0 0.0
2017-Nov-16 16:59N 45°33' W 122°42'0 0.0
2017-Nov-16 16:26N 45°33' W 122°42'0 0.0
2017-Nov-16 15:59N 45°33' W 122°42'0 0.0
2017-Nov-16 15:29N 45°33' W 122°42'0 0.0
2017-Nov-16 14:59N 45°33' W 122°42'0 0.0
2017-Nov-16 14:23N 45°33' W 122°42'0 0.0
2017-Nov-16 13:56N 45°33' W 122°42'0 0.0
2017-Nov-16 13:20N 45°33' W 122°42'0 0.0
2017-Nov-16 12:56N 45°33' W 122°42'0 0.0
2017-Nov-16 12:29N 45°33' W 122°42'0 0.0
2017-Nov-16 11:56N 45°33' W 122°42'0 0.0
2017-Nov-16 11:26N 45°33' W 122°42'0 0.0
2017-Nov-16 10:55N 45°33' W 122°42'0 0.0
2017-Nov-16 10:23N 45°33' W 122°42'0 0.0
2017-Nov-16 09:49N 45°33' W 122°42'0 0.0
2017-Nov-16 09:13N 45°33' W 122°42'0 0.0
2017-Nov-16 08:52N 45°33' W 122°42'0 0.0
2017-Nov-16 08:28N 45°33' W 122°42'0 0.0
2017-Nov-16 07:56N 45°33' W 122°42'0 0.0
2017-Nov-16 07:16N 45°33' W 122°42'0 0.0
2017-Nov-16 06:55N 45°33' W 122°42'0 0.0
2017-Nov-16 06:25N 45°33' W 122°42'0 0.0
2017-Nov-16 05:58N 45°33' W 122°42'0 0.0
2017-Nov-16 05:25N 45°33' W 122°42'0 0.0
2017-Nov-16 04:55N 45°33' W 122°42'0 0.0
2017-Nov-16 04:28N 45°33' W 122°42'0 0.0
2017-Nov-16 03:52N 45°33' W 122°42'0 0.0
2017-Nov-16 03:22N 45°33' W 122°42'0 0.0
2017-Nov-16 02:58N 45°33' W 122°42'0 0.0
2017-Nov-16 02:28N 45°33' W 122°42'0 0.0
2017-Nov-16 01:55N 45°33' W 122°42'0 0.0
2017-Nov-16 01:28N 45°33' W 122°42'0 0.0
2017-Nov-16 00:58N 45°33' W 122°42'0 0.0
2017-Nov-16 00:28N 45°33' W 122°42'0 0.0
2017-Nov-15 23:58N 45°33' W 122°42'0 0.0
2017-Nov-15 23:28N 45°33' W 122°42'0 0.0
2017-Nov-15 22:56N 45°33' W 122°42'0 0.0
2017-Nov-15 22:29N 45°33' W 122°42'0 0.0
2017-Nov-15 21:58N 45°33' W 122°42'0 0.0
2017-Nov-15 21:25N 45°33' W 122°42'0 0.0
2017-Nov-15 20:58N 45°33' W 122°42'0 0.0
2017-Nov-15 20:26N 45°33' W 122°42'0 0.0
2017-Nov-15 19:58N 45°33' W 122°42'0 0.0
2017-Nov-15 19:25N 45°33' W 122°42'0 0.0
2017-Nov-15 18:55N 45°33' W 122°42'0 0.0
2017-Nov-15 18:28N 45°33' W 122°42'0 0.0
2017-Nov-15 17:55N 45°33' W 122°42'0 0.0
2017-Nov-15 17:19N 45°33' W 122°42'0 0.0
2017-Nov-15 16:55N 45°33' W 122°42'0 0.0
2017-Nov-15 16:25N 45°33' W 122°42'0 0.0
2017-Nov-15 15:55N 45°33' W 122°42'0 0.0
2017-Nov-15 15:28N 45°33' W 122°42'0 0.0
2017-Nov-15 14:55N 45°33' W 122°42'0 0.0
2017-Nov-15 14:25N 45°33' W 122°42'0 0.0
2017-Nov-15 13:58N 45°33' W 122°42'0 0.0
2017-Nov-15 13:25N 45°33' W 122°42'0 0.0
2017-Nov-15 12:37N 45°33' W 122°42'0 0.0
2017-Nov-15 12:28N 45°33' W 122°42'0 0.0
2017-Nov-15 11:58N 45°33' W 122°42'0 0.0
2017-Nov-15 11:28N 45°33' W 122°42'0 0.0
2017-Nov-15 10:58N 45°33' W 122°42'0 0.0
2017-Nov-15 10:28N 45°33' W 122°42'0 0.0
2017-Nov-15 09:55N 45°33' W 122°42'0 0.0
2017-Nov-15 09:28N 45°33' W 122°42'0 0.0
2017-Nov-15 08:58N 45°33' W 122°42'0 0.0
2017-Nov-15 08:28N 45°33' W 122°42'0 0.0
2017-Nov-15 07:58N 45°33' W 122°42'0 0.0
2017-Nov-15 07:25N 45°33' W 122°42'0 0.0
2017-Nov-15 06:55N 45°33' W 122°42'0 0.0
2017-Nov-15 06:25N 45°33' W 122°42'0 0.0
2017-Nov-15 05:58N 45°33' W 122°42'0 0.0
2017-Nov-15 05:25N 45°33' W 122°42'0 0.0
2017-Nov-15 04:55N 45°33' W 122°42'0 0.0
2017-Nov-15 04:31N 45°33' W 122°42'0 0.0
2017-Nov-15 04:00N 45°33' W 122°42'0 0.0
2017-Nov-15 03:18N 45°33' W 122°42'0 0.0
2017-Nov-15 02:54N 45°33' W 122°42'0 0.0
2017-Nov-15 02:09N 45°33' W 122°42'0 0.0
2017-Nov-15 01:57N 45°33' W 122°42'0 0.0
2017-Nov-15 01:30N 45°33' W 122°42'  
2017-Nov-12 19:48N 45°33' W 122°42'0 0.0
2017-Nov-12 19:30N 45°33' W 122°42'0 0.0
2017-Nov-12 19:00N 45°33' W 122°42'0 0.0
2017-Nov-12 18:29N 45°33' W 122°42'0 0.0
2017-Nov-12 17:59N 45°33' W 122°42'0 0.0
2017-Nov-12 17:30N 45°33' W 122°42'0 0.0
2017-Nov-12 16:59N 45°33' W 122°42'0 0.0
2017-Nov-12 16:29N 45°33' W 122°42'0 0.0
2017-Nov-12 15:59N 45°33' W 122°42'0 0.0
2017-Nov-12 15:26N 45°33' W 122°42'0 0.0
2017-Nov-12 14:59N 45°33' W 122°42'0 0.0
2017-Nov-12 14:29N 45°33' W 122°42'0 0.0
2017-Nov-12 13:59N 45°33' W 122°42'0 0.0
2017-Nov-12 13:29N 45°33' W 122°42'0 0.0
2017-Nov-12 12:59N 45°33' W 122°42'0 0.0
2017-Nov-12 12:29N 45°33' W 122°42'0 0.0
2017-Nov-12 11:56N 45°33' W 122°42'0 0.0
2017-Nov-12 11:29N 45°33' W 122°42'0 0.0
2017-Nov-12 10:59N 45°33' W 122°42'0 0.0
2017-Nov-12 10:29N 45°33' W 122°42'0 0.0
2017-Nov-12 09:59N 45°33' W 122°42'0 0.0
2017-Nov-12 09:29N 45°33' W 122°42'0 0.0
2017-Nov-12 08:59N 45°33' W 122°42'0 0.0
2017-Nov-12 08:29N 45°33' W 122°42'0 0.0
2017-Nov-12 07:59N 45°33' W 122°42'0 0.0
2017-Nov-12 07:29N 45°33' W 122°42'0 0.0
2017-Nov-12 06:59N 45°33' W 122°42'0 0.0
2017-Nov-12 06:29N 45°33' W 122°42'0 0.0
2017-Nov-12 05:59N 45°33' W 122°42'0 0.0
2017-Nov-12 05:29N 45°33' W 122°42'0 0.0
2017-Nov-12 04:59N 45°33' W 122°42'0 0.0
2017-Nov-12 04:29N 45°33' W 122°42'0 0.0
2017-Nov-12 03:59N 45°33' W 122°42'0 0.0
2017-Nov-12 03:29N 45°33' W 122°42'0 0.0
2017-Nov-12 02:59N 45°33' W 122°42'0 0.0
2017-Nov-12 02:23N 45°33' W 122°42'0 0.0
2017-Nov-12 01:59N 45°33' W 122°42'0 0.0
2017-Nov-12 01:29N 45°33' W 122°42'0 0.0
2017-Nov-12 00:59N 45°33' W 122°42'0 0.0
2017-Nov-12 00:29N 45°33' W 122°42'0 0.0
2017-Nov-11 23:59N 45°33' W 122°42'0 0.0
2017-Nov-11 23:29N 45°33' W 122°42'0 0.0
2017-Nov-11 22:59N 45°33' W 122°42'0 0.0
2017-Nov-11 22:29N 45°33' W 122°42'0 0.0
2017-Nov-11 21:59N 45°33' W 122°42'0 0.0
2017-Nov-11 21:29N 45°33' W 122°42'0 0.0
2017-Nov-11 20:59N 45°33' W 122°42'0 0.0
2017-Nov-11 20:29N 45°33' W 122°42'0 0.0
2017-Nov-11 19:59N 45°33' W 122°42'0 0.0
2017-Nov-11 19:29N 45°33' W 122°42'0 0.0
2017-Nov-11 18:59N 45°33' W 122°42'0 0.0
2017-Nov-11 18:29N 45°33' W 122°42'0 0.0
2017-Nov-11 17:59N 45°33' W 122°42'0 0.0
2017-Nov-11 17:29N 45°33' W 122°42'0 0.0
2017-Nov-11 16:53N 45°33' W 122°42'0 0.0
2017-Nov-11 16:29N 45°33' W 122°42'0 0.0
2017-Nov-11 15:56N 45°33' W 122°42'0 0.0
2017-Nov-11 15:29N 45°33' W 122°42'0 0.0
2017-Nov-11 14:59N 45°33' W 122°42'0 0.0
2017-Nov-11 14:29N 45°33' W 122°42'0 0.0
2017-Nov-11 13:59N 45°33' W 122°42'0 0.0
2017-Nov-11 13:29N 45°33' W 122°42'0 0.0
2017-Nov-11 12:59N 45°33' W 122°42'0 0.0
2017-Nov-11 12:29N 45°33' W 122°42'0 0.0
2017-Nov-11 11:59N 45°33' W 122°42'0 0.0
2017-Nov-11 11:29N 45°33' W 122°42'0 0.0
2017-Nov-11 10:59N 45°33' W 122°42'0 0.0
2017-Nov-11 10:29N 45°33' W 122°42'0 0.0
2017-Nov-11 09:58N 45°33' W 122°42'0 0.0
2017-Nov-11 09:28N 45°33' W 122°42'0 0.0
2017-Nov-11 08:58N 45°33' W 122°42'0 0.0
2017-Nov-11 08:28N 45°33' W 122°42'0 0.0
2017-Nov-11 07:58N 45°33' W 122°42'0 0.0
2017-Nov-11 07:28N 45°33' W 122°42'0 0.0
2017-Nov-11 06:58N 45°33' W 122°42'0 0.0
2017-Nov-11 06:28N 45°33' W 122°42'0 0.0
2017-Nov-11 05:58N 45°33' W 122°42'0 0.0
2017-Nov-11 05:28N 45°33' W 122°42'0 0.0
2017-Nov-11 04:58N 45°33' W 122°42'0 0.0
2017-Nov-11 04:28N 45°33' W 122°42'0 0.0
2017-Nov-11 03:58N 45°33' W 122°42'0 0.0
2017-Nov-11 03:28N 45°33' W 122°42'0 0.0
2017-Nov-11 02:58N 45°33' W 122°42'0 0.0
2017-Nov-11 02:22N 45°33' W 122°42'0 0.0
2017-Nov-11 01:58N 45°33' W 122°42'0 0.0
2017-Nov-11 01:28N 45°33' W 122°42'0 0.0
2017-Nov-11 00:58N 45°33' W 122°42'0 0.0
2017-Nov-11 00:28N 45°33' W 122°42'0 0.0
2017-Nov-10 23:58N 45°33' W 122°42'0 0.0
2017-Nov-10 23:28N 45°33' W 122°42'0 0.0
2017-Nov-10 22:58N 45°33' W 122°42'0 0.0
2017-Nov-10 22:28N 45°33' W 122°42'0 0.0
2017-Nov-10 21:58N 45°33' W 122°42'0 0.0
2017-Nov-10 21:28N 45°33' W 122°42'0 0.0
2017-Nov-10 20:58N 45°33' W 122°42'0 0.0
2017-Nov-10 20:28N 45°33' W 122°42'0 0.0
2017-Nov-10 19:58N 45°33' W 122°42'0 0.0
2017-Nov-10 19:28N 45°33' W 122°42'0 0.0
2017-Nov-10 18:58N 45°33' W 122°42'0 0.0
2017-Nov-10 18:28N 45°33' W 122°42'0 0.0
2017-Nov-10 17:58N 45°33' W 122°42'0 0.0
2017-Nov-10 17:28N 45°33' W 122°42'0 0.0
2017-Nov-10 16:58N 45°33' W 122°42'0 0.0
2017-Nov-10 16:22N 45°33' W 122°42'0 0.0
2017-Nov-10 15:58N 45°33' W 122°42'0 0.0
2017-Nov-10 15:28N 45°33' W 122°42'0 0.0
2017-Nov-10 14:58N 45°33' W 122°42'0 0.0
2017-Nov-10 14:16N 45°33' W 122°42'0 0.0
2017-Nov-10 13:58N 45°33' W 122°42'0 0.0
2017-Nov-10 13:10N 45°33' W 122°42'0 0.0
2017-Nov-10 12:55N 45°33' W 122°42'0 0.0
2017-Nov-10 12:25N 45°33' W 122°42'0 0.0
2017-Nov-10 11:58N 45°33' W 122°42'0 0.0
2017-Nov-10 11:25N 45°33' W 122°42'0 0.0
2017-Nov-10 10:58N 45°33' W 122°42'0 0.0
2017-Nov-10 10:28N 45°33' W 122°42'0 0.0
2017-Nov-10 09:58N 45°33' W 122°42'0 0.0
2017-Nov-10 09:28N 45°33' W 122°42'0 0.0
2017-Nov-10 08:58N 45°33' W 122°42'0 0.0
2017-Nov-10 08:28N 45°33' W 122°42'0 0.0
2017-Nov-10 07:58N 45°33' W 122°42'0 0.0
2017-Nov-10 07:25N 45°33' W 122°42'0 0.0
2017-Nov-10 06:58N 45°33' W 122°42'0 0.0
2017-Nov-10 06:25N 45°33' W 122°42'0 0.0
2017-Nov-10 06:01N 45°33' W 122°42'0 0.0
2017-Nov-10 05:31N 45°33' W 122°42'0 0.0
2017-Nov-10 05:00N 45°33' W 122°42'0 0.0
2017-Nov-10 04:30N 45°33' W 122°42'0 0.0
2017-Nov-10 04:00N 45°33' W 122°42'0 0.0
2017-Nov-10 03:30N 45°33' W 122°42'3 6.1
2017-Nov-10 03:00N 45°35' W 122°46'5 8.8
2017-Nov-10 02:26N 45°40' W 122°46'511.1
2017-Nov-10 02:00N 45°45' W 122°46'510.9
2017-Nov-10 01:30N 45°50' W 122°47'510.0
2017-Nov-10 01:00N 45°55' W 122°49'510.4
2017-Nov-10 00:30N 45°60' W 122°51'510.6
2017-Nov-10 00:00N 46°05' W 122°54'3 5.4
2017-Nov-09 23:30N 46°06' W 122°57'0 0.2
2017-Nov-09 23:00N 46°06' W 122°57'0 0.3
2017-Nov-09 22:30N 46°06' W 122°57'0 0.0
2017-Nov-09 22:00N 46°06' W 122°57'0 0.3
2017-Nov-09 21:30N 46°06' W 122°57'0 0.4
2017-Nov-09 21:00N 46°06' W 122°57'2 4.1
2017-Nov-09 20:30N 46°07' W 122°60'4 7.7
2017-Nov-09 20:00N 46°10' W 123°04'4 7.9
2017-Nov-09 19:30N 46°11' W 123°09'4 8.1
2017-Nov-09 19:00N 46°10' W 123°15'4 8.1
2017-Nov-09 18:30N 46°09' W 123°20'4 7.9
2017-Nov-09 18:00N 46°11' W 123°25'4 8.2
2017-Nov-09 17:30N 46°15' W 123°26'4 7.5
2017-Nov-09 17:00N 46°16' W 123°31'4 8.4
2017-Nov-09 16:30N 46°15' W 123°37'4 8.3
2017-Nov-09 16:00N 46°14' W 123°43'4 8.4
2017-Nov-09 15:31N 46°12' W 123°48'2 3.1
2017-Nov-09 15:01N 46°12' W 123°50'3 6.9
2017-Nov-09 14:30N 46°12' W 123°55'3 6.9
2017-Nov-09 14:00N 46°14' W 123°59'3 6.4
2017-Nov-09 13:30N 46°15' W 124°03'3 6.4
2017-Nov-09 13:00N 46°14' W 124°07'4 7.0
2017-Nov-09 12:23N 46°10' W 124°10'3 7.4
2017-Nov-09 12:00N 46°07' W 124°10'4 6.6
2017-Nov-09 11:21N 46°03' W 124°11'2 7.1
2017-Nov-09 11:00N 46°01' W 124°10'3 6.8
2017-Nov-09 10:30N 45°57' W 124°10'3 6.9
2017-Nov-09 10:00N 45°54' W 124°10'4 7.3
2017-Nov-09 09:30N 45°50' W 124°09'4 7.2
2017-Nov-09 09:00N 45°46' W 124°09'4 7.1
2017-Nov-09 08:30N 45°43' W 124°09'  

Dump ship's entire track history